Time;durP1;ratioP1;P1;durP2;ratioP2;P2;SDS_P1;SDS_P2;PMS_P1;PMS_P2;Temp;Humidity;BMP_temperature;BMP_pressure;BME280_temperature;BME280_humidity;BME280_pressure;Samples;Min_cycle;Max_cycle;Signal;HPM_P1;HPM_P2
2024/02/12 00:01:55;;;;;;;24.80;17.30;;;;;;;2.89;94.90;98191.44;106602;1270;59640;-40
2024/02/12 00:04:26;;;;;;;32.30;18.20;;;;;;;2.93;94.65;98192.16;106625;1265;59624;-41
2024/02/12 00:06:58;;;;;;;30.40;19.50;;;;;;;2.94;94.64;98193.95;106659;1267;73507;-40
2024/02/12 00:09:25;;;;;;;32.10;18.80;;;;;;;2.89;94.82;98190.37;106664;1267;68511;-40
2024/02/12 00:11:54;;;;;;;28.20;18.00;;;;;;;2.90;94.93;98188.02;106627;1266;72689;-41
2024/02/12 00:14:24;;;;;;;29.80;18.00;;;;;;;2.95;94.66;98187.79;106604;1266;59387;-41
2024/02/12 00:16:52;;;;;;;28.30;15.10;;;;;;;2.97;94.85;98189.97;106743;1267;59586;-41
2024/02/12 00:19:19;;;;;;;26.90;17.40;;;;;;;2.92;94.93;98187.46;106735;1266;73047;-41
2024/02/12 00:21:48;;;;;;;29.10;17.50;;;;;;;2.94;94.93;98188.30;106733;1271;68408;-41
2024/02/12 00:24:17;;;;;;;36.80;18.40;;;;;;;3.00;94.51;98181.42;106710;1266;72438;-40
2024/02/12 00:26:44;;;;;;;25.60;18.30;;;;;;;2.97;94.44;98178.73;106734;1266;59730;-41
2024/02/12 00:29:13;;;;;;;33.60;18.60;;;;;;;2.93;94.92;98175.57;106732;1266;59541;-41
2024/02/12 00:31:42;;;;;;;34.90;17.80;;;;;;;2.97;94.74;98174.60;106726;1266;71752;-40
2024/02/12 00:34:09;;;;;;;33.30;18.10;;;;;;;2.99;94.28;98164.59;106734;1266;67121;-40
2024/02/12 00:36:37;;;;;;;31.50;18.00;;;;;;;2.97;94.54;98157.46;106678;1267;71386;-41
2024/02/12 00:39:09;;;;;;;33.90;16.60;;;;;;;2.93;94.61;98156.97;106767;1266;60901;-40
2024/02/12 00:41:38;;;;;;;27.60;16.30;;;;;;;2.95;94.59;98152.98;106577;1266;59864;-40
2024/02/12 00:44:06;;;;;;;29.00;13.00;;;;;;;2.99;94.41;98148.75;106522;1271;72987;-41
2024/02/12 00:46:34;;;;;;;48.10;18.00;;;;;;;2.95;94.64;98146.48;106619;1271;67452;-41
2024/02/12 00:49:01;;;;;;;34.90;17.30;;;;;;;2.90;94.64;98147.71;106481;1269;72715;-40
2024/02/12 00:51:32;;;;;;;34.60;16.50;;;;;;;2.91;94.69;98148.12;106456;1269;59663;-40
2024/02/12 00:54:01;;;;;;;26.10;16.80;;;;;;;2.92;94.50;98148.91;106631;1271;60030;-39
2024/02/12 00:56:29;;;;;;;28.50;17.90;;;;;;;2.89;94.93;98150.06;106556;1271;73322;-40
2024/02/12 00:58:56;;;;;;;26.10;17.00;;;;;;;2.90;95.20;98158.11;106592;1270;68310;-39
2024/02/12 01:01:24;;;;;;;22.60;15.80;;;;;;;3.00;95.35;98161.92;106471;1269;71418;-40
2024/02/12 01:03:52;;;;;;;26.50;17.50;;;;;;;3.09;94.98;98152.68;106611;1269;59521;-39
2024/02/12 01:06:20;;;;;;;39.00;17.50;;;;;;;3.12;95.06;98141.36;106610;1267;59512;-39
2024/02/12 01:08:47;;;;;;;26.00;16.10;;;;;;;3.11;95.14;98133.93;106620;1272;73078;-38
2024/02/12 01:11:16;;;;;;;24.60;16.30;;;;;;;3.13;94.78;98127.55;106614;1267;68369;-39
2024/02/12 01:13:45;;;;;;;29.60;17.10;;;;;;;3.16;94.47;98123.88;106575;1271;70460;-38
2024/02/12 01:16:12;;;;;;;28.50;17.10;;;;;;;3.11;94.48;98125.27;106595;1269;59657;-39
2024/02/12 01:18:40;;;;;;;23.70;16.70;;;;;;;3.08;94.84;98132.77;106708;1266;59723;-39
2024/02/12 01:21:07;;;;;;;23.20;14.70;;;;;;;3.11;94.85;98132.61;106705;1266;73798;-39
2024/02/12 01:23:35;;;;;;;28.20;15.90;;;;;;;3.24;94.54;98141.55;106730;1271;68159;-38
2024/02/12 01:26:03;;;;;;;26.80;16.90;;;;;;;3.27;94.45;98145.31;106728;1266;71386;-40
2024/02/12 01:28:31;;;;;;;22.80;16.90;;;;;;;3.28;94.80;98149.55;106725;1266;60556;-40
2024/02/12 01:30:59;;;;;;;21.80;15.50;;;;;;;3.32;95.16;98150.98;106732;1266;60568;-39
2024/02/12 01:33:28;;;;;;;19.00;14.00;;;;;;;3.46;95.09;98157.08;106756;1267;73833;-39
2024/02/12 01:35:56;;;;;;;22.10;15.50;;;;;;;3.60;94.61;98158.93;106713;1267;68389;-39
2024/02/12 01:38:24;;;;;;;27.00;16.10;;;;;;;3.69;94.57;98153.18;106741;1267;72712;-40
2024/02/12 01:40:51;;;;;;;29.50;16.40;;;;;;;3.70;94.26;98158.13;106711;1266;60559;-39
2024/02/12 01:43:32;;;;;;;22.20;15.40;;;;;;;3.67;93.71;98158.81;106752;1271;59680;-39
2024/02/12 01:46:00;;;;;;;21.00;15.20;;;;;;;3.66;92.95;98162.69;106727;1266;73836;-40
2024/02/12 01:48:29;;;;;;;19.60;15.40;;;;;;;3.66;92.51;98162.16;106674;1267;67432;-39
2024/02/12 01:51:06;;;;;;;30.70;16.80;;;;;;;3.62;92.66;98169.02;106588;1266;72655;-39
2024/02/12 01:53:42;;;;;;;23.80;15.70;;;;;;;3.58;92.38;98169.92;106571;1266;60444;-40
2024/02/12 01:56:12;;;;;;;26.50;14.70;;;;;;;3.58;92.04;98168.16;106591;1267;60293;-40
2024/02/12 01:58:41;;;;;;;22.00;14.70;;;;;;;3.60;91.78;98171.55;106510;1267;73844;-39
2024/02/12 02:01:16;;;;;;;32.60;15.60;;;;;;;3.58;92.08;98177.71;106591;1270;68358;-40
2024/02/12 02:03:44;;;;;;;20.60;15.10;;;;;;;3.57;92.13;98173.09;106720;1270;72968;-40
2024/02/12 02:06:12;;;;;;;20.20;14.70;;;;;;;3.59;92.05;98164.18;107068;1260;60905;-40
2024/02/12 02:08:41;;;;;;;25.20;15.20;;;;;;;3.64;91.70;98153.90;107037;1262;60495;-39
2024/02/12 02:11:10;;;;;;;29.40;15.60;;;;;;;3.63;91.46;98146.13;107182;1263;71603;-40
2024/02/12 02:13:44;;;;;;;35.40;14.80;;;;;;;3.56;91.57;98143.59;107021;1262;68730;-40
2024/02/12 02:16:12;;;;;;;23.80;14.90;;;;;;;3.54;91.66;98144.52;107087;1260;72724;-39
2024/02/12 02:18:45;;;;;;;23.00;14.50;;;;;;;3.57;91.40;98147.06;107002;1262;60473;-39
2024/02/12 02:21:12;;;;;;;30.40;15.00;;;;;;;3.57;91.27;98147.59;107088;1262;60338;-40
2024/02/12 02:23:41;;;;;;;21.50;15.40;;;;;;;3.53;91.62;98146.80;107051;1257;72577;-40
2024/02/12 02:26:09;;;;;;;30.50;14.90;;;;;;;3.50;91.71;98142.50;107038;1259;67937;-39
2024/02/12 02:28:36;;;;;;;24.10;15.20;;;;;;;3.54;91.30;98146.58;107034;1262;71420;-40
2024/02/12 02:31:04;;;;;;;30.30;15.60;;;;;;;3.56;91.03;98146.79;106898;1258;60552;-40
2024/02/12 02:33:31;;;;;;;23.00;15.90;;;;;;;3.49;90.87;98151.60;106994;1261;60354;-40
2024/02/12 02:36:01;;;;;;;30.10;15.80;;;;;;;3.41;90.96;98158.70;107045;1258;72411;-40
2024/02/12 02:38:29;;;;;;;23.80;15.10;;;;;;;3.41;91.02;98158.48;107028;1260;68127;-40
2024/02/12 02:40:58;;;;;;;28.60;15.60;;;;;;;3.46;90.80;98155.56;107082;1258;71184;-40
2024/02/12 02:43:26;;;;;;;30.40;16.40;;;;;;;3.45;91.14;98151.02;107018;1260;60438;-40
2024/02/12 02:45:54;;;;;;;31.70;15.70;;;;;;;3.42;91.33;98154.63;107068;1263;60383;-40
2024/02/12 02:48:22;;;;;;;21.50;15.20;;;;;;;3.44;91.53;98157.12;107045;1260;73811;-40
2024/02/12 02:50:50;;;;;;;18.40;15.10;;;;;;;3.57;91.53;98164.42;107108;1258;67063;-39
2024/02/12 02:53:17;;;;;;;34.00;15.90;;;;;;;3.69;91.76;98177.62;107025;1261;71528;-39
2024/02/12 02:55:45;;;;;;;23.70;15.80;;;;;;;3.75;91.93;98174.41;107039;1263;60510;-40
2024/02/12 02:58:12;;;;;;;30.20;16.20;;;;;;;3.77;91.78;98163.85;107035;1258;60289;-40
2024/02/12 03:00:40;;;;;;;37.10;16.90;;;;;;;3.80;91.80;98154.54;107058;1260;73065;-39
2024/02/12 03:03:08;;;;;;;26.40;15.50;;;;;;;3.90;91.72;98151.38;107067;1260;68399;-40
2024/02/12 03:05:38;;;;;;;29.00;15.30;;;;;;;4.01;90.87;98144.36;107062;1263;71723;-40
2024/02/12 03:08:08;;;;;;;32.10;15.30;;;;;;;3.98;90.33;98134.62;107035;1261;60449;-39
2024/02/12 03:10:37;;;;;;;34.80;16.10;;;;;;;3.90;90.07;98129.31;107084;1258;59975;-40
2024/02/12 03:13:04;;;;;;;28.20;15.30;;;;;;;3.80;89.81;98134.73;107046;1257;73886;-40
2024/02/12 03:15:36;;;;;;;28.30;14.80;;;;;;;3.77;89.35;98143.30;106991;1262;68410;-40
2024/02/12 03:18:04;;;;;;;21.00;14.80;;;;;;;3.77;89.35;98149.89;106953;1263;72667;-40
2024/02/12 03:20:32;;;;;;;28.50;15.60;;;;;;;3.77;89.65;98145.83;106998;1262;59362;-40
2024/02/12 03:23:00;;;;;;;23.70;15.50;;;;;;;3.74;89.66;98146.14;107101;1257;59691;-40
2024/02/12 03:25:28;;;;;;;33.30;14.00;;;;;;;3.67;89.19;98140.81;107007;1262;73928;-40
2024/02/12 03:27:55;;;;;;;28.40;14.70;;;;;;;3.63;89.09;98140.25;107034;1262;67433;-39
2024/02/12 03:30:24;;;;;;;29.80;15.70;;;;;;;3.56;89.07;98147.11;107051;1257;71414;-40
2024/02/12 03:32:52;;;;;;;24.50;14.20;;;;;;;3.47;89.63;98140.77;107022;1257;60326;-40
2024/02/12 03:35:20;;;;;;;24.20;13.90;;;;;;;3.46;89.78;98139.17;107065;1258;60426;-39
2024/02/12 03:37:48;;;;;;;26.90;13.90;;;;;;;3.52;89.93;98136.65;107062;1259;72674;-39
2024/02/12 03:40:17;;;;;;;25.40;14.80;;;;;;;3.54;90.04;98137.34;107020;1257;67110;-40
2024/02/12 03:42:49;;;;;;;27.60;14.40;;;;;;;3.50;90.11;98135.47;107033;1257;72000;-40
2024/02/12 03:45:17;;;;;;;27.90;13.40;;;;;;;3.48;90.49;98125.52;107039;1263;60491;-39
2024/02/12 03:47:47;;;;;;;22.90;13.10;;;;;;;3.52;90.38;98126.78;107059;1263;60403;-39
2024/02/12 04:01:28;;;;;;;21.30;13.80;;;;;;;3.74;90.32;98135.39;107457;1254;60537;-39
2024/02/12 04:03:55;;;;;;;29.10;15.20;;;;;;;3.68;90.54;98118.71;107417;1254;73894;-39
2024/02/12 04:06:24;;;;;;;21.20;13.50;;;;;;;3.75;90.42;98130.54;107426;1260;67230;-39
2024/02/12 04:08:52;;;;;;;26.40;13.50;;;;;;;3.79;90.12;98124.83;107401;1257;71391;-39
2024/02/12 04:11:20;;;;;;;27.00;14.30;;;;;;;3.79;89.24;98122.21;107397;1254;60424;-40
2024/02/12 04:13:49;;;;;;;25.30;14.00;;;;;;;3.70;89.12;98126.50;107424;1259;59682;-40
2024/02/12 04:16:17;;;;;;;27.70;14.20;;;;;;;3.66;89.45;98129.37;107441;1255;73811;-40
2024/02/12 04:18:46;;;;;;;18.80;13.60;;;;;;;3.66;89.66;98128.60;107381;1260;68686;-40
2024/02/12 04:21:16;;;;;;;16.80;12.60;;;;;;;3.71;89.45;98131.03;107391;1258;73128;-40
2024/02/12 04:23:48;;;;;;;21.20;13.20;;;;;;;3.76;89.53;98130.63;107428;1258;60581;-40
2024/02/12 04:26:17;;;;;;;18.40;13.30;;;;;;;3.78;89.83;98134.20;107401;1254;60316;-40
2024/02/12 04:28:46;;;;;;;31.80;13.30;;;;;;;3.78;89.74;98129.84;107415;1260;72581;-40
2024/02/12 04:31:14;;;;;;;20.50;12.90;;;;;;;3.77;89.56;98127.70;107298;1259;68318;-40
2024/02/12 04:33:43;;;;;;;19.60;12.10;;;;;;;3.82;89.21;98131.58;107400;1254;72526;-39
2024/02/12 04:36:15;;;;;;;21.00;12.10;;;;;;;3.84;89.03;98132.60;107324;1260;60404;-40
2024/02/12 04:38:43;;;;;;;19.20;12.90;;;;;;;3.83;89.13;98130.11;107261;1254;60049;-39
2024/02/12 04:41:12;;;;;;;20.60;12.70;;;;;;;3.73;89.24;98123.29;107379;1254;73808;-39
2024/02/12 04:43:41;;;;;;;23.80;12.40;;;;;;;3.77;89.14;98127.39;107346;1254;67104;-39
2024/02/12 04:46:10;;;;;;;22.60;12.20;;;;;;;3.82;88.84;98125.50;107282;1254;71426;-41
2024/02/12 04:48:39;;;;;;;24.70;12.00;;;;;;;3.83;88.84;98128.97;107342;1256;60507;-41
2024/02/12 04:51:08;;;;;;;19.00;12.20;;;;;;;3.77;88.72;98131.66;107286;1254;60306;-40
2024/02/12 04:53:36;;;;;;;18.40;12.00;;;;;;;3.72;88.87;98139.25;107317;1254;73908;-40
2024/02/12 04:56:06;;;;;;;11.30;9.20;;;;;;;3.74;89.09;98142.46;107372;1259;67649;-39
2024/02/12 04:58:36;;;;;;;18.50;12.20;;;;;;;3.82;89.00;98138.30;107383;1260;72708;-39
2024/02/12 05:01:04;;;;;;;23.10;12.10;;;;;;;3.82;88.99;98140.23;107311;1258;60475;-39
2024/02/12 05:03:33;;;;;;;21.20;12.80;;;;;;;3.78;89.07;98134.74;107326;1254;60400;-40
2024/02/12 05:06:02;;;;;;;16.70;11.30;;;;;;;3.77;89.23;98135.86;107384;1254;73938;-39
2024/02/12 05:08:30;;;;;;;14.50;11.10;;;;;;;3.82;88.97;98137.06;107448;1259;68361;-39
2024/02/12 05:10:57;;;;;;;17.50;11.90;;;;;;;3.89;88.83;98143.36;107374;1254;73192;-40
2024/02/12 05:13:25;;;;;;;17.20;11.10;;;;;;;3.90;89.01;98146.25;107452;1257;60533;-40
2024/02/12 05:15:53;;;;;;;18.40;12.10;;;;;;;3.90;89.17;98146.10;107438;1254;58758;-39
2024/02/12 05:23:58;;;;;;;18.80;11.20;;;;;;;4.00;88.33;98154.21;107374;1257;71251;-39
2024/02/12 05:26:26;;;;;;;19.20;11.80;;;;;;;3.98;88.37;98154.31;107458;1259;60601;-39
2024/02/12 05:28:54;;;;;;;20.20;12.90;;;;;;;3.93;88.46;98149.91;107466;1254;59236;-39
2024/02/12 05:31:21;;;;;;;16.80;12.30;;;;;;;3.91;88.41;98149.34;107440;1254;73241;-40
2024/02/12 05:33:50;;;;;;;15.00;11.80;;;;;;;3.96;88.19;98150.83;107449;1254;67428;-39
2024/02/12 05:36:20;;;;;;;27.40;11.60;;;;;;;3.99;88.07;98158.95;107435;1257;71447;-40
2024/02/12 05:38:49;;;;;;;25.00;11.80;;;;;;;3.96;88.13;98167.52;107517;1254;60274;-40
2024/02/12 05:41:16;;;;;;;21.60;11.10;;;;;;;3.91;88.09;98165.56;107477;1255;60383;-40
2024/02/12 05:43:44;;;;;;;15.70;10.60;;;;;;;3.88;88.12;98162.27;107504;1254;72507;-39
2024/02/12 05:46:12;;;;;;;18.00;11.10;;;;;;;3.92;87.71;98160.16;107462;1254;68765;-40
2024/02/12 05:48:40;;;;;;;19.60;10.80;;;;;;;3.90;87.69;98161.42;107454;1254;72667;-40
2024/02/12 05:51:10;;;;;;;28.20;11.40;;;;;;;3.85;87.86;98158.73;107469;1257;60543;-39
2024/02/12 05:53:37;;;;;;;23.70;10.70;;;;;;;3.81;88.27;98154.43;107463;1254;59221;-40
2024/02/12 05:56:06;;;;;;;12.90;9.70;;;;;;;3.85;88.24;98154.98;107457;1258;73770;-40
2024/02/12 05:58:34;;;;;;;29.60;10.30;;;;;;;3.92;88.31;98156.31;107475;1254;67419;-40
2024/02/12 06:01:03;;;;;;;21.70;10.00;;;;;;;3.93;88.42;98158.71;107453;1254;72687;-39
2024/02/12 06:03:30;;;;;;;27.50;10.60;;;;;;;3.90;88.81;98149.22;107310;1254;60577;-39
2024/02/12 06:05:58;;;;;;;14.20;9.10;;;;;;;3.90;88.88;98153.68;107334;1254;60529;-40
2024/02/12 06:08:26;;;;;;;12.40;9.00;;;;;;;3.99;88.87;98153.81;107469;1257;72632;-40
2024/02/12 06:10:54;;;;;;;22.70;8.50;;;;;;;4.05;88.77;98161.31;107342;1255;68357;-39
2024/02/12 06:13:23;;;;;;;16.40;8.90;;;;;;;4.06;89.22;98169.33;107401;1256;71483;-39
2024/02/12 06:15:50;;;;;;;12.10;9.00;;;;;;;4.08;89.26;98166.91;107416;1256;60434;-40
2024/02/12 06:18:18;;;;;;;10.20;8.10;;;;;;;4.12;89.29;98161.35;107445;1254;60329;-40
2024/02/12 06:20:47;;;;;;;19.10;8.60;;;;;;;4.19;88.95;98155.53;107453;1254;73668;-39
2024/02/12 06:23:16;;;;;;;27.10;9.20;;;;;;;4.22;88.95;98156.45;107375;1254;67257;-39
2024/02/12 06:25:44;;;;;;;22.50;8.60;;;;;;;4.22;89.18;98155.90;107337;1254;72672;-40
2024/02/12 06:28:11;;;;;;;17.20;8.50;;;;;;;4.24;89.37;98154.89;107371;1254;60870;-39
2024/02/12 06:30:39;;;;;;;19.60;7.40;;;;;;;4.31;89.16;98156.98;107454;1254;60386;-40
2024/02/12 06:33:07;;;;;;;16.50;8.00;;;;;;;4.38;88.96;98155.77;107448;1254;73992;-40
2024/02/12 06:35:35;;;;;;;27.50;8.30;;;;;;;4.39;89.01;98156.55;107435;1254;67431;-40
2024/02/12 06:38:03;;;;;;;20.40;9.40;;;;;;;4.42;89.41;98161.75;107459;1257;71440;-40
2024/02/12 06:40:31;;;;;;;19.40;8.10;;;;;;;4.46;89.46;98165.16;107546;1257;60399;-40
2024/02/12 06:43:04;;;;;;;13.70;7.90;;;;;;;4.55;88.89;98165.38;107457;1254;60149;-40
2024/02/12 06:45:32;;;;;;;11.30;8.10;;;;;;;4.61;88.99;98158.22;107487;1254;72721;-39
2024/02/12 06:48:00;;;;;;;27.00;8.80;;;;;;;4.64;89.05;98161.97;107554;1253;68496;-40
2024/02/12 06:50:28;;;;;;;18.40;9.30;;;;;;;4.65;88.98;98157.23;107497;1254;71467;-40
2024/02/12 06:52:56;;;;;;;11.90;8.30;;;;;;;4.66;88.80;98155.19;107450;1258;60524;-40
2024/02/12 06:55:24;;;;;;;18.30;8.10;;;;;;;4.73;88.37;98156.25;107429;1254;60290;-40
2024/02/12 06:57:51;;;;;;;16.20;8.20;;;;;;;4.78;88.50;98159.52;107427;1253;74224;-40
2024/02/12 07:00:19;;;;;;;18.30;7.80;;;;;;;4.82;88.69;98163.69;107456;1254;67569;-40
2024/02/12 07:02:49;;;;;;;21.00;9.50;;;;;;;4.84;88.55;98167.70;107457;1254;72713;-40
2024/02/12 07:05:17;;;;;;;13.70;7.30;;;;;;;4.85;88.43;98170.86;107475;1255;61047;-41
2024/02/12 07:07:46;;;;;;;12.80;7.80;;;;;;;4.89;87.96;98163.98;107500;1254;60521;-40
2024/02/12 07:10:14;;;;;;;16.10;7.90;;;;;;;4.94;87.77;98160.39;107453;1254;72598;-40
2024/02/12 07:12:41;;;;;;;16.90;8.70;;;;;;;4.94;87.86;98159.55;107442;1254;68357;-40
2024/02/12 07:15:09;;;;;;;15.90;8.80;;;;;;;4.93;88.07;98159.77;107464;1254;70506;-39
2024/02/12 07:17:37;;;;;;;11.00;8.20;;;;;;;4.95;88.13;98159.73;106659;1254;1003093;-39
2024/02/12 07:20:09;;;;;;;11.20;7.70;;;;;;;5.02;87.89;98154.20;107349;1253;60438;-39
2024/02/12 07:22:37;;;;;;;13.50;8.00;;;;;;;5.09;87.61;98152.42;107368;1254;73869;-40
2024/02/12 07:25:05;;;;;;;8.70;7.50;;;;;;;5.13;87.91;98149.67;107336;1254;68353;-39
2024/02/12 07:27:32;;;;;;;13.60;9.20;;;;;;;5.16;88.10;98147.06;107506;1254;72569;-40
2024/02/12 07:30:00;;;;;;;9.50;8.00;;;;;;;5.18;87.95;98158.01;107416;1253;60384;-40
2024/02/12 07:32:27;;;;;;;8.20;7.40;;;;;;;5.25;87.68;98163.20;107463;1253;60316;-40
2024/02/12 07:34:55;;;;;;;12.30;7.70;;;;;;;5.35;87.48;98169.24;107448;1254;72552;-40
2024/02/12 07:37:24;;;;;;;16.50;8.00;;;;;;;5.38;87.50;98167.60;107499;1254;67225;-40
2024/02/12 07:39:51;;;;;;;17.00;8.80;;;;;;;5.39;87.68;98168.70;107448;1258;71394;-40
2024/02/12 07:42:19;;;;;;;10.40;9.10;;;;;;;5.40;87.63;98168.58;107456;1254;60471;-40
2024/02/12 07:44:48;;;;;;;8.50;7.70;;;;;;;5.42;87.09;98171.15;107463;1253;59317;-40
2024/02/12 07:47:17;;;;;;;14.30;8.00;;;;;;;5.45;86.69;98169.44;107501;1254;73859;-40
2024/02/12 07:49:45;;;;;;;17.10;9.40;;;;;;;5.42;86.88;98171.53;107445;1253;68952;-40
2024/02/12 07:52:13;;;;;;;27.30;10.00;;;;;;;5.43;87.48;98167.93;107442;1254;75188;-40
2024/02/12 07:54:41;;;;;;;10.90;9.20;;;;;;;5.46;87.68;98163.48;107434;1256;60797;-40
2024/02/12 07:57:12;;;;;;;11.70;8.10;;;;;;;5.53;87.27;98166.06;107441;1254;59654;-40
2024/02/12 07:59:40;;;;;;;12.20;7.40;;;;;;;5.59;87.02;98164.49;107492;1254;73962;-40
2024/02/12 08:02:08;;;;;;;20.60;10.10;;;;;;;5.62;87.27;98158.80;107453;1255;68626;-40
2024/02/12 08:04:36;;;;;;;20.20;10.70;;;;;;;5.66;87.58;98159.25;107438;1254;73135;-40
2024/02/12 08:07:04;;;;;;;19.10;9.60;;;;;;;5.70;87.84;98159.31;107456;1256;61875;-40
2024/02/12 08:09:35;;;;;;;11.50;9.40;;;;;;;5.81;87.62;98159.45;107491;1254;60366;-40
2024/02/12 08:12:05;;;;;;;19.50;9.60;;;;;;;5.91;87.43;98163.12;107494;1254;72498;-40
2024/02/12 08:14:33;;;;;;;17.60;10.00;;;;;;;5.97;87.46;98164.69;107329;1254;68882;-40
2024/02/12 08:17:04;;;;;;;17.40;10.70;;;;;;;6.02;87.62;98161.08;107267;1254;72692;-40
2024/02/12 08:19:33;;;;;;;17.50;10.00;;;;;;;6.08;87.66;98156.89;107274;1254;61755;-40
2024/02/12 08:22:01;;;;;;;17.70;8.70;;;;;;;6.19;87.28;98156.05;107332;1259;60294;-40
2024/02/12 08:24:30;;;;;;;16.60;10.00;;;;;;;6.24;86.63;98162.30;107315;1254;73837;-40
2024/02/12 08:26:57;;;;;;;12.30;10.30;;;;;;;6.25;86.94;98167.70;107278;1253;68371;-40
2024/02/12 08:29:25;;;;;;;20.40;11.70;;;;;;;6.27;87.34;98165.73;106665;1253;1003686;-41
2024/02/12 08:31:53;;;;;;;13.00;10.00;;;;;;;6.35;87.60;98171.63;107383;1255;61940;-41
2024/02/12 08:34:20;;;;;;;17.50;10.50;;;;;;;6.48;87.25;98173.38;107370;1253;60860;-41
2024/02/12 08:36:48;;;;;;;14.60;10.40;;;;;;;6.57;86.63;98172.98;107290;1254;73794;-40
2024/02/12 08:39:16;;;;;;;21.80;11.30;;;;;;;6.54;86.41;98171.31;107299;1254;68856;-40
2024/02/12 08:41:48;;;;;;;18.90;11.70;;;;;;;6.49;86.41;98174.33;107364;1259;74824;-40
2024/02/12 08:44:16;;;;;;;12.30;10.30;;;;;;;6.50;86.70;98173.71;107393;1254;59490;-40
2024/02/12 08:46:44;;;;;;;18.60;11.00;;;;;;;6.57;86.54;98173.42;107415;1253;60530;-39
2024/02/12 08:49:12;;;;;;;17.80;11.30;;;;;;;6.63;86.46;98168.30;107444;1253;73979;-40
2024/02/12 08:51:42;;;;;;;22.10;12.70;;;;;;;6.65;86.60;98171.56;107462;1253;68971;-40
2024/02/12 08:54:09;;;;;;;16.10;12.50;;;;;;;6.66;86.80;98178.20;107434;1256;71372;-40
2024/02/12 08:56:39;;;;;;;14.60;11.30;;;;;;;6.68;86.79;98181.39;107466;1254;61765;-40
2024/02/12 08:59:07;;;;;;;14.40;11.50;;;;;;;6.77;86.75;98184.67;107439;1254;60136;-40
2024/02/12 09:01:36;;;;;;;18.10;12.50;;;;;;;6.84;86.52;98183.70;107459;1255;73894;-40
2024/02/12 09:04:06;;;;;;;27.20;13.00;;;;;;;6.85;86.40;98178.33;107319;1253;68694;-40
2024/02/12 09:06:34;;;;;;;;;;;;;;;6.80;86.21;98169.55;107305;1259;73977;-41
2024/02/12 09:09:02;;;;;;;20.60;12.80;;;;;;;6.71;86.13;98169.65;107423;1254;61826;-41
2024/02/12 09:11:30;;;;;;;20.60;12.90;;;;;;;6.66;86.01;98169.34;107354;1254;60616;-40
2024/02/12 09:13:57;;;;;;;27.10;13.50;;;;;;;6.64;86.49;98166.84;107330;1259;73942;-41
2024/02/12 09:16:25;;;;;;;21.50;13.90;;;;;;;6.61;86.93;98167.27;107325;1254;67942;-41
2024/02/12 09:18:54;;;;;;;20.90;11.80;;;;;;;6.61;87.22;98172.90;107352;1255;71472;-40
2024/02/12 09:21:22;;;;;;;13.90;11.80;;;;;;;6.67;87.21;98166.29;107283;1259;61753;-40
2024/02/12 09:23:49;;;;;;;24.60;13.10;;;;;;;6.72;87.37;98164.52;107394;1253;60304;-40
2024/02/12 09:26:17;;;;;;;30.80;13.60;;;;;;;6.73;87.44;98167.39;107456;1254;72393;-40
2024/02/12 09:28:45;;;;;;;16.00;12.10;;;;;;;6.72;87.69;98167.52;107484;1253;68548;-40
2024/02/12 09:31:12;;;;;;;15.30;11.40;;;;;;;6.80;87.91;98176.40;107381;1254;130115;-41
2024/02/12 09:35:37;;;;;;;19.50;12.50;;;;;;;6.91;87.54;98169.33;104235;1291;601241;-39
2024/02/12 09:38:06;;;;;;;20.30;12.70;;;;;;;6.88;87.39;98170.73;106672;1267;60053;-40
2024/02/12 09:40:34;;;;;;;20.30;12.50;;;;;;;6.87;87.18;98166.05;106694;1268;59881;-40
2024/02/12 09:43:02;;;;;;;16.40;11.70;;;;;;;6.88;86.94;98164.59;107021;1261;72265;-40
2024/02/12 09:45:30;;;;;;;16.30;12.10;;;;;;;6.88;87.26;98162.59;107030;1266;68862;-40
2024/02/12 09:48:01;;;;;;;20.90;12.10;;;;;;;6.87;87.83;98161.19;107017;1264;73259;-40
2024/02/12 09:50:29;;;;;;;20.30;12.50;;;;;;;6.91;88.24;98157.02;106934;1263;151591;-40
2024/02/12 09:52:57;;;;;;;13.50;11.30;;;;;;;6.99;88.15;98154.81;107104;1263;59967;-40
2024/02/12 09:55:25;;;;;;;17.60;11.50;;;;;;;7.09;88.07;98163.64;107032;1257;72340;-40
2024/02/12 09:57:53;;;;;;;17.90;12.70;;;;;;;7.13;88.39;98161.94;107082;1262;70605;-40
2024/02/12 10:00:22;;;;;;;16.90;14.00;;;;;;;7.20;88.32;98160.09;107123;1259;71470;-40
2024/02/12 10:02:56;;;;;;;12.00;9.80;;;;;;;7.24;88.19;98160.21;107064;1262;61766;-40
2024/02/12 10:05:24;;;;;;;14.60;12.60;;;;;;;7.34;87.80;98160.81;107133;1257;59522;-41
2024/02/12 10:07:52;;;;;;;22.80;13.10;;;;;;;7.43;87.15;98156.30;106975;1260;71121;-40
2024/02/12 10:10:20;;;;;;;16.80;13.10;;;;;;;7.43;86.63;98152.52;107191;1257;66116;-40
2024/02/12 10:12:52;;;;;;;24.40;15.50;;;;;;;7.40;86.61;98152.56;107191;1258;73211;-40
2024/02/12 10:15:20;;;;;;;16.20;13.20;;;;;;;7.37;86.76;98153.59;107168;1257;60410;-40
2024/02/12 10:17:47;;;;;;;19.00;13.60;;;;;;;7.43;86.65;98153.91;107182;1258;59929;-39
2024/02/12 10:20:15;;;;;;;20.60;13.80;;;;;;;7.49;86.40;98157.83;107142;1263;73165;-41
2024/02/12 10:22:44;;;;;;;20.20;15.80;;;;;;;7.49;86.71;98156.52;107128;1258;67440;-40
2024/02/12 10:25:12;;;;;;;22.10;16.90;;;;;;;7.50;87.07;98146.05;107122;1257;72798;-40
2024/02/12 10:27:40;;;;;;;19.30;15.10;;;;;;;7.55;87.03;98140.02;107042;1261;61875;-40
2024/02/12 10:30:08;;;;;;;20.70;16.20;;;;;;;7.63;86.78;98141.66;107191;1257;59289;-40
2024/02/12 10:32:37;;;;;;;21.70;17.40;;;;;;;7.67;86.89;98135.45;107184;1262;73164;-40
2024/02/12 10:35:07;;;;;;;24.10;17.50;;;;;;;7.68;87.16;98138.01;107071;1257;67630;-40
2024/02/12 10:37:35;;;;;;;24.20;16.90;;;;;;;7.69;87.35;98138.56;107054;1258;71463;-40
2024/02/12 10:40:12;;;;;;;23.60;16.90;;;;;;;7.77;87.13;98141.11;106934;1264;62248;-40
2024/02/12 10:42:49;;;;;;;25.30;18.00;;;;;;;7.80;86.76;98143.67;106933;1257;60105;-41
2024/02/12 10:45:18;;;;;;;26.70;19.70;;;;;;;7.77;86.96;98139.48;107065;1257;71391;-40
2024/02/12 10:47:47;;;;;;;22.50;17.60;;;;;;;7.77;87.27;98138.40;107026;1257;67918;-40
2024/02/12 10:50:17;;;;;;;25.60;17.50;;;;;;;7.83;87.14;98139.55;106967;1258;71480;-40
2024/02/12 10:52:47;;;;;;;;;;;;;;;7.94;87.24;98139.65;107020;1257;60244;-40
2024/02/12 10:55:15;;;;;;;26.10;19.00;;;;;;;8.00;87.25;98137.61;107077;1257;59933;-40
2024/02/12 10:57:43;;;;;;;24.80;18.70;;;;;;;8.01;87.06;98136.31;107029;1257;71653;-40
2024/02/12 11:00:27;;;;;;;27.40;18.10;;;;;;;8.00;86.85;98136.70;107050;1257;68922;-40
2024/02/12 11:02:56;;;;;;;27.30;18.30;;;;;;;8.08;86.49;98139.39;107071;1260;71888;-40
2024/02/12 11:05:23;;;;;;;24.40;17.20;;;;;;;8.07;86.39;98134.91;107037;1257;59362;-40
2024/02/12 11:08:10;;;;;;;30.50;19.10;;;;;;;8.04;86.85;98130.48;107202;1257;59608;-40
2024/02/12 11:10:40;;;;;;;27.40;17.00;;;;;;;8.10;87.08;98130.86;107234;1257;71797;-40
2024/02/12 11:13:10;;;;;;;23.30;16.80;;;;;;;8.19;86.85;98127.00;107109;1257;68556;-40
2024/02/12 11:15:37;;;;;;;27.50;17.70;;;;;;;8.24;86.84;98121.64;107205;1257;71224;-40
2024/02/12 11:18:12;;;;;;;22.10;16.80;;;;;;;8.28;87.15;98113.27;107161;1257;60159;-40
2024/02/12 11:20:50;;;;;;;23.00;15.20;;;;;;;8.35;87.28;98108.64;107196;1257;59698;-40
2024/02/12 11:23:22;;;;;;;26.00;14.40;;;;;;;8.51;87.19;98110.23;107071;1257;73184;-40
2024/02/12 11:25:55;;;;;;;23.10;15.00;;;;;;;8.65;86.77;98114.55;107143;1257;68640;-40
2024/02/12 11:28:26;;;;;;;24.40;15.70;;;;;;;8.70;86.39;98117.53;107115;1257;73039;-40
2024/02/12 11:30:54;;;;;;;22.40;16.20;;;;;;;8.72;86.35;98115.21;107207;1257;60119;-41
2024/02/12 11:33:25;;;;;;;26.50;16.30;;;;;;;8.71;85.77;98113.83;107196;1257;60158;-40
2024/02/12 11:36:07;;;;;;;20.20;15.40;;;;;;;8.71;85.02;98114.36;107183;1258;73495;-40
2024/02/12 11:38:57;;;;;;;21.60;16.10;;;;;;;8.70;84.70;98112.42;107213;1263;68869;-40
2024/02/12 11:41:25;;;;;;;22.50;16.90;;;;;;;8.59;84.21;98111.50;107194;1257;72699;-41
2024/02/12 11:43:53;;;;;;;24.30;17.00;;;;;;;8.45;84.29;98113.81;107245;1257;61969;-40
2024/02/12 11:46:21;;;;;;;21.00;16.40;;;;;;;8.39;84.81;98109.74;107177;1263;59591;-40